Time;durP1;ratioP1;P1;durP2;ratioP2;P2;SDS_P1;SDS_P2;PMS_P1;PMS_P2;Temp;Humidity;BMP_temperature;BMP_pressure;BME280_temperature;BME280_humidity;BME280_pressure;Samples;Min_cycle;Max_cycle;Signal;HPM_P1;HPM_P2
2023/10/29 00:01:13;;;;;;;8.10;6.60;;;;;;;9.50;100.00;98123.10;109683;1251;59505;-68
2023/10/29 00:03:40;;;;;;;8.80;6.50;;;;;;;9.51;100.00;98125.88;109687;1251;59299;-68
2023/10/29 00:06:06;;;;;;;10.80;8.90;;;;;;;9.51;100.00;98122.84;109691;1251;65044;-68
2023/10/29 00:08:33;;;;;;;12.20;10.70;;;;;;;9.51;100.00;98116.82;109387;1250;59051;-68
2023/10/29 00:10:59;;;;;;;9.50;8.10;;;;;;;9.50;100.00;98113.53;109705;1250;58926;-68
2023/10/29 00:13:26;;;;;;;8.40;6.50;;;;;;;9.48;100.00;98109.27;109707;1250;59635;-68
2023/10/29 00:15:52;;;;;;;9.50;6.60;;;;;;;9.43;100.00;98111.70;109712;1251;59067;-68
2023/10/29 00:18:18;;;;;;;10.20;7.20;;;;;;;9.40;100.00;98113.77;109661;1250;59051;-68
2023/10/29 00:20:45;;;;;;;9.10;8.00;;;;;;;9.35;100.00;98120.88;109651;1250;59168;-68
2023/10/29 00:23:13;;;;;;;11.70;7.70;;;;;;;9.30;100.00;98123.55;109702;1250;58964;-68
2023/10/29 00:25:40;;;;;;;12.50;6.80;;;;;;;9.25;100.00;98124.48;109780;1250;66037;-68
2023/10/29 00:28:07;;;;;;;11.10;7.10;;;;;;;9.18;100.00;98122.45;109684;1250;61488;-68
2023/10/29 00:30:34;;;;;;;8.70;7.80;;;;;;;9.13;100.00;98125.17;109636;1250;63733;-68
2023/10/29 00:33:00;;;;;;;10.30;7.80;;;;;;;9.10;100.00;98125.92;109664;1249;59123;-68
2023/10/29 00:35:27;;;;;;;11.00;7.40;;;;;;;9.09;100.00;98125.30;109714;1250;60036;-68
2023/10/29 00:37:53;;;;;;;12.30;8.00;;;;;;;9.08;100.00;98124.65;109722;1250;65885;-68
2023/10/29 00:40:20;;;;;;;10.80;7.00;;;;;;;9.08;100.00;98122.88;109666;1250;59351;-68
2023/10/29 00:42:46;;;;;;;11.00;7.60;;;;;;;9.10;100.00;98123.85;109687;1250;59229;-68
2023/10/29 00:45:13;;;;;;;9.40;8.40;;;;;;;9.10;100.00;98125.25;109642;1250;59021;-68
2023/10/29 00:47:40;;;;;;;8.40;6.60;;;;;;;9.10;100.00;98124.86;109701;1249;59135;-68
2023/10/29 00:50:07;;;;;;;8.40;6.60;;;;;;;9.10;100.00;98125.55;109678;1250;64966;-68
2023/10/29 00:52:34;;;;;;;10.20;7.10;;;;;;;9.10;100.00;98124.70;109751;1250;59853;-67
2023/10/29 00:55:02;;;;;;;8.10;6.60;;;;;;;9.09;100.00;98123.89;109692;1250;63675;-67
2023/10/29 00:57:29;;;;;;;8.70;7.20;;;;;;;9.07;100.00;98119.94;109502;1251;59281;-67
2023/10/29 00:59:57;;;;;;;9.60;7.00;;;;;;;9.06;100.00;98115.63;109515;1250;59012;-67
2023/10/29 01:02:24;;;;;;;9.20;6.60;;;;;;;9.06;100.00;98117.04;109534;1251;67473;-67
2023/10/29 01:04:50;;;;;;;11.20;8.00;;;;;;;9.06;100.00;98118.27;109721;1250;60180;-67
2023/10/29 01:07:17;;;;;;;9.20;8.00;;;;;;;9.06;100.00;98117.38;109554;1250;62519;-67
2023/10/29 01:09:46;;;;;;;11.10;8.70;;;;;;;9.06;100.00;98115.46;109403;1251;59221;-67
2023/10/29 01:12:16;;;;;;;9.80;8.70;;;;;;;9.06;100.00;98118.80;109676;1250;58939;-67
2023/10/29 01:14:44;;;;;;;12.50;8.60;;;;;;;9.06;100.00;98120.20;109761;1250;67009;-67
2023/10/29 01:17:10;;;;;;;10.90;9.00;;;;;;;9.06;100.00;98119.35;109696;1249;61325;-67
2023/10/29 01:19:37;;;;;;;9.90;8.40;;;;;;;9.06;100.00;98116.30;109709;1249;64083;-67
2023/10/29 01:22:04;;;;;;;9.70;7.60;;;;;;;9.08;100.00;98116.73;109725;1249;60542;-67
2023/10/29 01:24:30;;;;;;;9.60;7.80;;;;;;;9.08;100.00;98119.89;109717;1250;59062;-67
2023/10/29 01:26:57;;;;;;;8.60;7.30;;;;;;;9.07;100.00;98117.79;109576;1250;65994;-68
2023/10/29 01:29:23;;;;;;;11.60;7.10;;;;;;;9.06;100.00;98115.40;109693;1251;59451;-67
2023/10/29 01:31:49;;;;;;;9.90;6.70;;;;;;;9.04;100.00;98109.41;109519;1249;59088;-67
2023/10/29 01:34:17;;;;;;;7.80;6.80;;;;;;;9.02;100.00;98108.45;109691;1251;59331;-68
2023/10/29 01:36:43;;;;;;;7.30;6.20;;;;;;;9.00;100.00;98107.51;109660;1250;59120;-67
2023/10/29 01:39:10;;;;;;;7.50;6.40;;;;;;;8.99;100.00;98107.45;109717;1249;59095;-67
2023/10/29 01:41:36;;;;;;;7.90;6.60;;;;;;;8.97;100.00;98106.84;109683;1250;59002;-68
2023/10/29 01:44:03;;;;;;;7.40;6.50;;;;;;;8.97;100.00;98107.25;109708;1250;64055;-67
2023/10/29 01:46:29;;;;;;;8.70;7.20;;;;;;;8.95;100.00;98109.89;109419;1254;59389;-67
2023/10/29 01:48:56;;;;;;;8.70;7.10;;;;;;;8.92;100.00;98115.20;109689;1250;59281;-68
2023/10/29 01:51:23;;;;;;;13.40;8.00;;;;;;;8.89;100.00;98117.61;109691;1249;67332;-67
2023/10/29 01:53:49;;;;;;;10.30;8.50;;;;;;;8.86;100.00;98118.89;109646;1250;59935;-67
2023/10/29 01:56:16;;;;;;;11.70;9.10;;;;;;;8.83;100.00;98122.28;109716;1249;65241;-67
2023/10/29 01:58:42;;;;;;;13.60;8.50;;;;;;;8.81;100.00;98123.64;109694;1250;58984;-68
2023/10/29 02:01:10;;;;;;;10.40;8.40;;;;;;;8.80;100.00;98125.31;109726;1249;58984;-67
2023/10/29 02:03:38;;;;;;;9.10;7.30;;;;;;;8.81;100.00;98129.30;109677;1250;66961;-68
2023/10/29 02:06:15;;;;;;;9.30;7.40;;;;;;;8.83;100.00;98131.00;109686;1250;69760;-67
2023/10/29 02:08:41;;;;;;;11.00;7.70;;;;;;;8.84;100.00;98128.61;109545;1250;63741;-67
2023/10/29 02:11:07;;;;;;;11.00;7.50;;;;;;;8.84;100.00;98124.15;109716;1249;59173;-68
2023/10/29 02:13:34;;;;;;;7.60;6.90;;;;;;;8.85;100.00;98122.83;109736;1250;58992;-67
2023/10/29 02:16:02;;;;;;;8.50;6.70;;;;;;;8.85;100.00;98123.52;109663;1249;64906;-68
2023/10/29 02:18:29;;;;;;;8.30;7.00;;;;;;;8.85;100.00;98127.48;109714;1249;59915;-70
2023/10/29 02:20:56;;;;;;;9.70;8.40;;;;;;;8.83;100.00;98128.13;109679;1249;64892;-67
2023/10/29 02:23:22;;;;;;;7.70;7.00;;;;;;;8.82;100.00;98126.64;109705;1249;58936;-68
2023/10/29 02:25:49;;;;;;;8.90;8.00;;;;;;;8.80;100.00;98125.85;109687;1249;59164;-68
2023/10/29 02:28:15;;;;;;;10.40;8.90;;;;;;;8.77;100.00;98126.05;109708;1250;58923;-67
2023/10/29 02:30:41;;;;;;;10.60;9.40;;;;;;;8.73;100.00;98123.70;109718;1249;58980;-68
2023/10/29 02:33:08;;;;;;;13.10;11.10;;;;;;;8.69;100.00;98121.14;109675;1250;59055;-68
2023/10/29 02:35:34;;;;;;;13.00;10.20;;;;;;;8.66;100.00;98120.14;109662;1249;58975;-68
2023/10/29 02:38:01;;;;;;;9.60;8.70;;;;;;;8.62;100.00;98121.02;109747;1250;59189;-68
2023/10/29 02:40:27;;;;;;;9.90;8.90;;;;;;;8.55;100.00;98118.48;109735;1250;59257;-67
2023/10/29 02:42:54;;;;;;;11.70;9.80;;;;;;;8.49;100.00;98117.67;109719;1250;59095;-68
2023/10/29 02:45:20;;;;;;;8.40;7.60;;;;;;;8.42;100.00;98118.21;109685;1250;59687;-67
2023/10/29 02:47:47;;;;;;;9.10;7.60;;;;;;;8.32;100.00;98120.43;109702;1250;59014;-67
2023/10/29 02:50:13;;;;;;;8.60;7.70;;;;;;;8.24;100.00;98120.31;109705;1252;59072;-68
2023/10/29 02:52:43;;;;;;;8.10;7.20;;;;;;;8.15;100.00;98121.70;109711;1250;59359;-68
2023/10/29 02:55:09;;;;;;;12.40;10.00;;;;;;;8.07;100.00;98123.45;109679;1249;59841;-68
2023/10/29 02:57:36;;;;;;;11.20;8.70;;;;;;;8.03;100.00;98125.02;109710;1249;65696;-68
2023/10/29 03:00:30;;;;;;;11.80;10.30;;;;;;;8.01;100.00;98130.09;109498;1249;58964;-67
2023/10/29 03:02:57;;;;;;;13.40;12.10;;;;;;;8.01;100.00;98133.84;109714;1250;59075;-67
2023/10/29 03:05:23;;;;;;;15.50;12.20;;;;;;;7.99;100.00;98135.75;109533;1251;64462;-68
2023/10/29 03:07:50;;;;;;;12.40;10.40;;;;;;;7.97;100.00;98137.13;109692;1250;61107;-68
2023/10/29 03:10:17;;;;;;;13.30;11.60;;;;;;;7.95;100.00;98135.16;109705;1250;63689;-67
2023/10/29 03:12:43;;;;;;;13.70;11.80;;;;;;;7.91;100.00;98138.22;109695;1250;58954;-68
2023/10/29 03:15:10;;;;;;;13.90;11.50;;;;;;;7.87;100.00;98137.97;109684;1249;59499;-67
2023/10/29 03:17:36;;;;;;;13.10;11.70;;;;;;;7.83;100.00;98139.29;109686;1250;65720;-67
2023/10/29 03:20:03;;;;;;;14.20;11.20;;;;;;;7.80;100.00;98138.80;109719;1250;59706;-68
2023/10/29 03:22:30;;;;;;;14.70;11.00;;;;;;;7.76;100.00;98139.23;109504;1250;64049;-67
2023/10/29 03:24:56;;;;;;;12.50;11.10;;;;;;;7.75;100.00;98138.30;109673;1250;59043;-67
2023/10/29 03:27:23;;;;;;;16.30;11.90;;;;;;;7.71;100.00;98136.93;109727;1249;59066;-68
2023/10/29 03:29:49;;;;;;;12.80;11.30;;;;;;;7.68;100.00;98139.26;109689;1250;58936;-67
2023/10/29 03:32:15;;;;;;;15.60;13.90;;;;;;;7.65;100.00;98142.32;109707;1250;59068;-67
2023/10/29 03:34:42;;;;;;;16.80;12.90;;;;;;;7.63;100.00;98145.81;109690;1250;58935;-67
2023/10/29 03:37:09;;;;;;;14.70;13.00;;;;;;;7.60;100.00;98145.30;109647;1249;58953;-68
2023/10/29 03:39:35;;;;;;;16.70;13.60;;;;;;;7.54;100.00;98143.41;109685;1250;59190;-68
2023/10/29 03:42:02;;;;;;;16.70;13.50;;;;;;;7.48;100.00;98145.22;109745;1249;59218;-68
2023/10/29 03:44:29;;;;;;;13.20;11.40;;;;;;;7.42;100.00;98147.61;109724;1250;59030;-68
2023/10/29 03:46:55;;;;;;;15.30;13.70;;;;;;;7.35;100.00;98147.19;109723;1250;59102;-68
2023/10/29 03:49:22;;;;;;;15.10;13.40;;;;;;;7.30;100.00;98149.50;109676;1249;58951;-67
2023/10/29 03:51:48;;;;;;;17.90;14.80;;;;;;;7.24;100.00;98147.88;109701;1250;58980;-66
2023/10/29 03:54:15;;;;;;;14.50;13.00;;;;;;;7.20;100.00;98145.73;109705;1250;65898;-67
2023/10/29 03:56:41;;;;;;;14.70;11.60;;;;;;;7.16;100.00;98144.02;109749;1250;59456;-66
2023/10/29 03:59:08;;;;;;;14.70;13.10;;;;;;;7.11;100.00;98142.39;109735;1249;64072;-68
2023/10/29 04:01:35;;;;;;;14.40;13.00;;;;;;;7.06;100.00;98146.60;109675;1249;58980;-68
2023/10/29 04:04:03;;;;;;;14.60;12.90;;;;;;;7.01;100.00;98148.71;109705;1249;58937;-68
2023/10/29 04:06:30;;;;;;;14.10;12.70;;;;;;;6.97;100.00;98144.23;109706;1250;64613;-68
2023/10/29 04:08:57;;;;;;;13.60;12.20;;;;;;;6.92;100.00;98143.13;109723;1250;60722;-68
2023/10/29 04:11:24;;;;;;;13.00;11.70;;;;;;;6.87;100.00;98141.89;109729;1249;62862;-68
2023/10/29 04:13:50;;;;;;;13.60;11.00;;;;;;;6.82;100.00;98135.16;109661;1250;59243;-68
2023/10/29 04:16:17;;;;;;;13.00;11.10;;;;;;;6.78;100.00;98130.85;109721;1250;59054;-68
2023/10/29 04:18:43;;;;;;;13.30;12.00;;;;;;;6.72;100.00;98132.64;109421;1251;66565;-68
2023/10/29 04:21:10;;;;;;;12.60;11.50;;;;;;;6.67;100.00;98124.98;109662;1251;59848;-68
2023/10/29 04:23:36;;;;;;;13.70;11.50;;;;;;;6.66;100.00;98121.40;109641;1249;59038;-68
2023/10/29 04:26:03;;;;;;;13.60;12.20;;;;;;;6.63;100.00;98120.88;109739;1249;58957;-68
2023/10/29 04:28:29;;;;;;;13.10;11.80;;;;;;;6.59;100.00;98124.08;109703;1249;59056;-68
2023/10/29 04:30:56;;;;;;;14.40;12.40;;;;;;;6.57;100.00;98126.55;109699;1250;67927;-68
2023/10/29 04:33:23;;;;;;;13.90;12.50;;;;;;;6.54;100.00;98128.12;109745;1250;62470;-68
2023/10/29 04:35:49;;;;;;;13.00;11.00;;;;;;;6.51;100.00;98124.11;109720;1249;64012;-67
2023/10/29 04:38:16;;;;;;;11.70;10.50;;;;;;;6.47;100.00;98120.27;109702;1250;58959;-67
2023/10/29 04:40:42;;;;;;;11.50;10.30;;;;;;;6.43;100.00;98119.17;109722;1250;59008;-67
2023/10/29 04:43:09;;;;;;;13.10;11.40;;;;;;;6.40;100.00;98120.58;109730;1250;59005;-67
2023/10/29 04:45:35;;;;;;;12.80;10.10;;;;;;;6.38;100.00;98120.85;109700;1250;58959;-67
2023/10/29 04:48:02;;;;;;;14.30;9.90;;;;;;;6.37;100.00;98126.05;109707;1249;59154;-67
2023/10/29 04:50:30;;;;;;;12.40;11.00;;;;;;;6.33;100.00;98125.79;109772;1250;58930;-67
2023/10/29 04:52:57;;;;;;;12.10;10.80;;;;;;;6.29;100.00;98125.11;109402;1250;59058;-67
2023/10/29 04:55:24;;;;;;;11.80;10.50;;;;;;;6.28;100.00;98123.63;109673;1250;66975;-67
2023/10/29 04:57:50;;;;;;;11.80;10.70;;;;;;;6.26;100.00;98126.05;109511;1249;59045;-67
2023/10/29 05:00:17;;;;;;;13.40;11.80;;;;;;;6.23;100.00;98123.94;109363;1251;65437;-67
2023/10/29 05:02:43;;;;;;;13.80;11.80;;;;;;;6.21;100.00;98124.96;109686;1249;58946;-67
2023/10/29 05:05:11;;;;;;;11.50;10.40;;;;;;;6.20;100.00;98127.66;109475;1249;59152;-67
2023/10/29 05:07:37;;;;;;;16.00;14.40;;;;;;;6.19;100.00;98130.39;109694;1249;74886;-67
2023/10/29 05:10:05;;;;;;;15.90;14.30;;;;;;;6.18;100.00;98125.88;109694;1250;59065;-67
2023/10/29 05:12:31;;;;;;;13.40;12.10;;;;;;;6.18;100.00;98123.92;109549;1249;63722;-67
2023/10/29 05:14:58;;;;;;;14.10;12.60;;;;;;;6.19;100.00;98127.71;109507;1250;59124;-67
2023/10/29 05:17:24;;;;;;;12.50;11.40;;;;;;;6.19;100.00;98128.07;109700;1249;58866;-67
2023/10/29 05:19:51;;;;;;;14.70;13.20;;;;;;;6.18;100.00;98127.10;109677;1250;65651;-67
2023/10/29 05:22:17;;;;;;;14.10;12.40;;;;;;;6.18;100.00;98126.19;109695;1249;60836;-67
2023/10/29 05:24:44;;;;;;;13.10;11.70;;;;;;;6.19;100.00;98125.45;109668;1250;62499;-67
2023/10/29 05:27:10;;;;;;;13.40;12.00;;;;;;;6.17;100.00;98127.33;109663;1250;58997;-67
2023/10/29 05:29:37;;;;;;;14.20;11.90;;;;;;;6.15;100.00;98132.40;109701;1250;58987;-67
2023/10/29 05:32:03;;;;;;;13.00;11.80;;;;;;;6.14;100.00;98138.63;109549;1251;58999;-67
2023/10/29 05:34:30;;;;;;;14.70;13.20;;;;;;;6.14;100.00;98137.05;109541;1251;59845;-67
2023/10/29 05:36:56;;;;;;;15.00;13.40;;;;;;;6.14;100.00;98138.44;109729;1250;58996;-67
2023/10/29 05:39:23;;;;;;;16.10;14.40;;;;;;;6.14;100.00;98140.52;109730;1249;59287;-67
2023/10/29 05:41:49;;;;;;;18.40;16.50;;;;;;;6.15;100.00;98142.27;109721;1249;59021;-67
2023/10/29 05:44:16;;;;;;;19.90;17.80;;;;;;;6.17;100.00;98152.70;109676;1250;59172;-67
2023/10/29 05:46:42;;;;;;;16.20;14.60;;;;;;;6.21;100.00;98156.52;109692;1251;59029;-67
2023/10/29 05:49:09;;;;;;;19.90;17.80;;;;;;;6.25;100.00;98161.36;109700;1250;59173;-67
2023/10/29 05:51:35;;;;;;;20.10;18.00;;;;;;;6.30;100.00;98166.20;109733;1249;59092;-67
2023/10/29 05:54:02;;;;;;;22.40;20.20;;;;;;;6.34;100.00;98168.22;109658;1250;59025;-67
2023/10/29 05:56:28;;;;;;;18.90;17.00;;;;;;;6.39;100.00;98173.92;109701;1250;59035;-67
2023/10/29 05:58:55;;;;;;;20.40;18.40;;;;;;;6.47;100.00;98178.38;109563;1250;59053;-67
2023/10/29 06:01:21;;;;;;;20.20;17.60;;;;;;;6.55;100.00;98180.98;109687;1250;59022;-67
2023/10/29 06:03:47;;;;;;;18.00;16.40;;;;;;;6.65;100.00;98183.55;109643;1251;58983;-68
2023/10/29 06:06:14;;;;;;;18.10;16.20;;;;;;;6.75;100.00;98186.61;109705;1249;59161;-68
2023/10/29 06:08:40;;;;;;;18.30;16.50;;;;;;;6.84;100.00;98194.54;109682;1250;58993;-68
2023/10/29 06:11:07;;;;;;;19.00;17.00;;;;;;;6.91;100.00;98197.58;109721;1249;59105;-68
2023/10/29 06:13:33;;;;;;;19.10;17.40;;;;;;;6.98;100.00;98198.70;109672;1249;59131;-68
2023/10/29 06:16:05;;;;;;;23.40;21.00;;;;;;;7.05;100.00;98199.54;109656;1250;58956;-68
2023/10/29 06:18:32;;;;;;;22.00;17.60;;;;;;;7.09;100.00;98196.61;109657;1250;59027;-67
2023/10/29 06:20:58;;;;;;;18.60;16.60;;;;;;;7.13;100.00;98191.21;109706;1249;59320;-68
2023/10/29 06:23:26;;;;;;;19.00;17.00;;;;;;;7.19;100.00;98190.45;109720;1250;60803;-68
2023/10/29 06:25:52;;;;;;;18.20;16.60;;;;;;;7.27;100.00;98195.59;109469;1249;64081;-68
2023/10/29 06:28:19;;;;;;;18.90;16.90;;;;;;;7.38;100.00;98196.27;109658;1250;59094;-66
2023/10/29 06:30:45;;;;;;;18.70;16.90;;;;;;;7.51;100.00;98203.17;109741;1249;58965;-66
2023/10/29 06:33:12;;;;;;;19.60;17.60;;;;;;;7.64;100.00;98207.95;109696;1250;64669;-67
2023/10/29 06:35:40;;;;;;;18.10;16.40;;;;;;;7.77;100.00;98210.41;109701;1250;60698;-68
2023/10/29 06:38:07;;;;;;;19.60;17.70;;;;;;;7.92;100.00;98211.19;109660;1250;63923;-67
2023/10/29 06:40:33;;;;;;;20.80;18.60;;;;;;;8.07;100.00;98205.94;109710;1250;58983;-67
2023/10/29 06:43:01;;;;;;;24.30;20.30;;;;;;;8.20;100.00;98205.02;109658;1250;58841;-67
2023/10/29 06:45:27;;;;;;;23.90;21.30;;;;;;;8.33;100.00;98202.16;109663;1250;66984;-68
2023/10/29 06:47:54;;;;;;;23.00;20.40;;;;;;;8.48;100.00;98194.06;109712;1250;59055;-67
2023/10/29 06:50:20;;;;;;;24.10;21.20;;;;;;;8.63;100.00;98194.01;109695;1250;59106;-67
2023/10/29 06:52:47;;;;;;;24.60;21.20;;;;;;;8.77;100.00;98193.35;109689;1249;59089;-67
2023/10/29 06:55:13;;;;;;;35.90;29.10;;;;;;;8.97;100.00;98194.08;109722;1250;59347;-67
2023/10/29 06:57:40;;;;;;;40.30;31.50;;;;;;;9.16;100.00;98192.45;109688;1250;58976;-67
2023/10/29 07:00:08;;;;;;;33.20;28.00;;;;;;;9.38;100.00;98193.30;109715;1249;59647;-67
2023/10/29 07:02:35;;;;;;;45.90;35.90;;;;;;;9.59;100.00;98190.85;109686;1249;65071;-67
2023/10/29 07:05:02;;;;;;;75.10;48.60;;;;;;;9.76;100.00;98189.73;109659;1250;59048;-67
2023/10/29 07:07:29;;;;;;;76.30;48.30;;;;;;;9.93;100.00;98184.50;109467;1250;58967;-67
2023/10/29 07:09:56;;;;;;;129.50;68.40;;;;;;;10.08;100.00;98192.23;109740;1249;75724;-67
2023/10/29 07:12:23;;;;;;;175.10;86.40;;;;;;;10.21;100.00;98191.27;109660;1250;59184;-67
2023/10/29 07:14:49;;;;;;;134.50;69.70;;;;;;;10.35;100.00;98191.24;109664;1250;64179;-67
2023/10/29 07:17:16;;;;;;;132.80;72.70;;;;;;;10.48;100.00;98193.90;109331;1249;59018;-68
2023/10/29 07:19:42;;;;;;;56.20;33.70;;;;;;;10.63;100.00;98192.55;109687;1250;59027;-68
2023/10/29 07:22:09;;;;;;;24.30;15.70;;;;;;;10.79;100.00;98195.89;109687;1250;66907;-68
2023/10/29 07:24:36;;;;;;;15.50;12.70;;;;;;;10.95;100.00;98190.88;109692;1250;60993;-68
2023/10/29 07:27:02;;;;;;;15.30;10.10;;;;;;;11.10;100.00;98186.77;109747;1250;62905;-67
2023/10/29 07:29:29;;;;;;;12.00;8.80;;;;;;;11.24;100.00;98180.00;109458;1250;59015;-67
2023/10/29 07:31:56;;;;;;;9.80;8.80;;;;;;;11.35;100.00;98173.50;109703;1249;58924;-67
2023/10/29 07:34:22;;;;;;;16.10;9.20;;;;;;;11.46;100.00;98168.34;109719;1249;66104;-68
2023/10/29 07:36:49;;;;;;;10.50;8.80;;;;;;;11.59;100.00;98170.29;109711;1253;60998;-68
2023/10/29 07:39:15;;;;;;;9.00;8.00;;;;;;;11.74;100.00;98169.89;109676;1250;59039;-67
2023/10/29 07:41:42;;;;;;;13.00;8.30;;;;;;;11.91;100.00;98169.20;109702;1250;58987;-67
2023/10/29 07:44:08;;;;;;;9.80;8.00;;;;;;;12.03;100.00;98166.02;109763;1249;58877;-67
2023/10/29 07:46:35;;;;;;;9.00;7.30;;;;;;;12.16;100.00;98166.29;109676;1250;66053;-68
2023/10/29 07:49:02;;;;;;;12.30;8.80;;;;;;;12.32;100.00;98165.13;109726;1249;59083;-67
2023/10/29 07:51:29;;;;;;;9.00;7.40;;;;;;;12.46;100.00;98157.61;109664;1250;63987;-69
2023/10/29 07:53:56;;;;;;;8.40;7.60;;;;;;;12.60;100.00;98153.07;109483;1250;58990;-66
2023/10/29 07:56:22;;;;;;;10.50;8.70;;;;;;;12.72;100.00;98149.64;109686;1249;59008;-67
2023/10/29 07:58:49;;;;;;;10.00;7.00;;;;;;;12.80;100.00;98152.70;109567;1250;67337;-67
2023/10/29 08:01:17;;;;;;;7.60;6.50;;;;;;;12.87;100.00;98159.53;109733;1249;59426;-68
2023/10/29 08:03:45;;;;;;;7.30;6.10;;;;;;;12.91;100.00;98161.67;109702;1249;65304;-68
2023/10/29 08:06:13;;;;;;;11.40;7.00;;;;;;;12.90;100.00;98158.86;109691;1250;59089;-68
2023/10/29 08:08:40;;;;;;;8.20;6.50;;;;;;;12.84;100.00;98151.93;109711;1251;58863;-68
2023/10/29 08:11:06;;;;;;;13.80;8.40;;;;;;;12.82;100.00;98153.23;109670;1249;64419;-67
2023/10/29 08:13:33;;;;;;;15.40;9.80;;;;;;;12.84;100.00;98154.25;109377;1250;59137;-68
2023/10/29 08:15:59;;;;;;;12.70;7.90;;;;;;;12.84;100.00;98155.71;109697;1251;59040;-67
2023/10/29 08:18:26;;;;;;;21.80;11.80;;;;;;;12.83;100.00;98157.24;109652;1250;58966;-67
2023/10/29 08:20:52;;;;;;;28.20;14.80;;;;;;;12.87;100.00;98160.66;109576;1250;58900;-67
2023/10/29 08:23:20;;;;;;;9.90;7.50;;;;;;;12.93;100.00;98155.80;109715;1250;65964;-67
2023/10/29 08:25:47;;;;;;;7.10;5.10;;;;;;;12.94;100.00;98153.02;109715;1251;60029;-67
2023/10/29 08:28:14;;;;;;;6.30;5.10;;;;;;;12.95;100.00;98155.99;109678;1250;64835;-67
2023/10/29 08:30:40;;;;;;;5.70;4.70;;;;;;;12.98;100.00;98158.00;109397;1250;58998;-67
2023/10/29 08:33:07;;;;;;;6.80;5.00;;;;;;;13.03;100.00;98160.42;109674;1252;59015;-68
2023/10/29 08:35:33;;;;;;;7.70;5.40;;;;;;;13.14;100.00;98160.87;109713;1249;59060;-67
2023/10/29 08:38:00;;;;;;;5.90;4.40;;;;;;;13.27;100.00;98157.92;109642;1250;59006;-67
2023/10/29 08:40:26;;;;;;;5.90;4.60;;;;;;;13.39;100.00;98155.02;109726;1249;64045;-68
2023/10/29 08:42:53;;;;;;;6.20;5.00;;;;;;;13.50;100.00;98148.84;109642;1253;58961;-67
2023/10/29 08:45:22;;;;;;;7.40;5.40;;;;;;;13.62;100.00;98151.71;109715;1249;58938;-67
2023/10/29 08:47:48;;;;;;;6.00;4.40;;;;;;;13.72;100.00;98152.65;109661;1249;65803;-68
2023/10/29 08:50:15;;;;;;;6.80;4.60;;;;;;;13.82;100.00;98154.03;109687;1250;59168;-68
2023/10/29 08:52:41;;;;;;;8.60;5.70;;;;;;;13.95;100.00;98155.55;109718;1250;62842;-68
2023/10/29 08:55:08;;;;;;;6.90;5.00;;;;;;;14.06;100.00;98149.48;109676;1251;59022;-68
2023/10/29 08:57:35;;;;;;;7.60;5.60;;;;;;;14.16;100.00;98149.98;109714;1249;58980;-67
2023/10/29 09:00:02;;;;;;;12.20;9.50;;;;;;;14.26;100.00;98149.73;109525;1250;66016;-68
2023/10/29 09:02:30;;;;;;;7.40;6.10;;;;;;;14.38;100.00;98151.40;109673;1250;60193;-66
2023/10/29 09:04:57;;;;;;;7.80;5.60;;;;;;;14.49;100.00;98150.59;109691;1250;64094;-67
2023/10/29 09:07:25;;;;;;;6.20;5.30;;;;;;;14.59;100.00;98147.63;109703;1249;58992;-67
2023/10/29 09:09:54;;;;;;;5.60;4.80;;;;;;;14.71;100.00;98148.79;109629;1250;110405;-67
2023/10/29 09:12:21;;;;;;;7.20;4.80;;;;;;;14.85;100.00;98149.58;109502;1250;66367;-68
2023/10/29 09:14:48;;;;;;;7.20;5.80;;;;;;;14.99;100.00;98146.08;109682;1250;60174;-67
2023/10/29 09:17:15;;;;;;;9.10;6.20;;;;;;;15.12;100.00;98147.52;109732;1249;62439;-66
2023/10/29 09:19:41;;;;;;;7.80;6.40;;;;;;;15.21;100.00;98152.27;109698;1249;59213;-68
2023/10/29 09:22:08;;;;;;;7.10;6.30;;;;;;;15.30;100.00;98150.69;109680;1249;58993;-68
2023/10/29 09:24:34;;;;;;;5.40;4.80;;;;;;;15.40;100.00;98144.84;109694;1250;66180;-67
2023/10/29 09:27:01;;;;;;;8.00;5.40;;;;;;;15.52;100.00;98138.49;109720;1251;70051;-67
2023/10/29 09:29:31;;;;;;;6.60;5.40;;;;;;;15.63;100.00;98136.87;109720;1249;63721;-68
2023/10/29 09:31:58;;;;;;;6.60;4.90;;;;;;;15.71;100.00;98135.63;109518;1249;59079;-68
2023/10/29 09:34:25;;;;;;;14.90;8.80;;;;;;;15.80;100.00;98130.80;109689;1250;59009;-68
2023/10/29 09:36:51;;;;;;;11.00;5.80;;;;;;;15.91;100.00;98127.03;109695;1250;65782;-68
2023/10/29 09:39:18;;;;;;;12.30;4.80;;;;;;;16.00;100.00;98127.96;109559;1250;60435;-68
2023/10/29 09:41:46;;;;;;;6.30;4.10;;;;;;;16.08;100.00;98127.08;109687;1250;62933;-68
2023/10/29 09:44:18;;;;;;;6.90;3.60;;;;;;;16.15;100.00;98128.83;109670;1250;59017;-67
2023/10/29 09:46:45;;;;;;;5.30;3.70;;;;;;;16.22;100.00;98128.94;109700;1249;58968;-67
2023/10/29 09:49:13;;;;;;;4.80;3.90;;;;;;;16.30;100.00;98127.23;109684;1250;65719;-68
2023/10/29 09:51:41;;;;;;;7.60;3.80;;;;;;;16.39;100.00;98123.81;109426;1251;61071;-68
2023/10/29 09:54:08;;;;;;;2.60;1.90;;;;;;;16.49;100.00;98123.31;109717;1250;65035;-67
2023/10/29 09:56:36;;;;;;;2.20;1.10;;;;;;;16.57;100.00;98116.83;109337;1250;59031;-68
2023/10/29 09:59:06;;;;;;;3.30;1.20;;;;;;;16.66;100.00;98111.99;109540;1251;58873;-67
2023/10/29 10:01:33;;;;;;;1.70;1.00;;;;;;;16.75;100.00;98110.71;109515;1250;67457;-68
2023/10/29 10:03:59;;;;;;;2.50;1.50;;;;;;;16.83;100.00;98105.21;109715;1250;59866;-68
2023/10/29 10:06:27;;;;;;;2.70;1.30;;;;;;;16.91;100.00;98104.16;109405;1249;63084;-68
2023/10/29 10:08:59;;;;;;;2.50;1.10;;;;;;;17.00;100.00;98099.06;109690;1250;59025;-68
2023/10/29 10:11:27;;;;;;;3.00;1.50;;;;;;;17.12;100.00;98096.48;109679;1249;59039;-67
2023/10/29 10:13:53;;;;;;;2.90;1.40;;;;;;;17.26;100.00;98095.33;109714;1250;66863;-67
2023/10/29 10:16:20;;;;;;;1.50;1.10;;;;;;;17.38;100.00;98092.58;109397;1251;69915;-68
2023/10/29 10:18:54;;;;;;;2.30;1.40;;;;;;;17.49;100.00;98089.80;109729;1250;64005;-68
2023/10/29 10:21:23;;;;;;;4.60;3.20;;;;;;;17.58;100.00;98087.14;109696;1249;58994;-68
2023/10/29 10:23:58;;;;;;;3.80;1.60;;;;;;;17.66;100.00;98078.89;109714;1249;59047;-67
2023/10/29 10:26:34;;;;;;;2.00;1.30;;;;;;;17.73;100.00;98079.72;109720;1250;66867;-67
2023/10/29 10:29:06;;;;;;;2.50;1.00;;;;;;;17.81;100.00;98084.25;109705;1250;60984;-67
2023/10/29 10:31:35;;;;;;;2.20;1.20;;;;;;;17.88;100.00;98080.47;109685;1250;65033;-67
2023/10/29 10:34:10;;;;;;;2.10;1.60;;;;;;;17.95;100.00;98073.62;109715;1251;59031;-67
2023/10/29 10:36:37;;;;;;;3.20;1.40;;;;;;;18.03;100.00;98078.76;109691;1249;59061;-67
2023/10/29 10:39:03;;;;;;;2.00;1.10;;;;;;;18.11;100.00;98078.29;109519;1250;65704;-67
2023/10/29 10:41:56;;;;;;;5.50;1.70;;;;;;;18.16;100.00;98080.56;109694;1249;61004;-67
2023/10/29 10:44:23;;;;;;;3.90;1.40;;;;;;;18.22;100.00;98082.23;109070;1257;62810;-67
2023/10/29 10:46:51;;;;;;;6.30;4.00;;;;;;;18.28;100.00;98083.02;109036;1256;58987;-67
2023/10/29 10:49:19;;;;;;;5.00;2.50;;;;;;;18.35;100.00;98082.58;109018;1257;59144;-67
2023/10/29 10:51:48;;;;;;;4.20;1.60;;;;;;;18.40;100.00;98077.61;109037;1256;74511;-66
2023/10/29 10:54:19;;;;;;;3.00;1.50;;;;;;;18.44;100.00;98072.38;108905;1257;69019;-67
2023/10/29 10:56:46;;;;;;;4.80;1.50;;;;;;;18.45;100.00;98064.09;109013;1256;63713;-66
2023/10/29 10:59:13;;;;;;;2.80;1.70;;;;;;;18.48;100.00;98058.60;109012;1256;59100;-67
2023/10/29 11:01:40;;;;;;;3.00;2.10;;;;;;;18.51;100.00;98056.59;109024;1257;58962;-66
2023/10/29 11:04:08;;;;;;;4.40;1.40;;;;;;;18.56;100.00;98054.95;109031;1257;65851;-67
2023/10/29 11:06:36;;;;;;;3.10;1.40;;;;;;;18.58;100.00;98053.70;109043;1256;61704;-68
2023/10/29 11:09:12;;;;;;;3.10;1.40;;;;;;;18.62;100.00;98054.40;109034;1256;63773;-67
2023/10/29 11:11:43;;;;;;;3.70;1.70;;;;;;;18.67;100.00;98055.49;108911;1257;59031;-66
2023/10/29 11:14:17;;;;;;;3.80;1.70;;;;;;;18.70;100.00;98053.48;109036;1257;59136;-66